JST457 YMML-YSSY
Flight info
| Callsign | JST457 |
|---|---|
| Flight time | 1h 6m |
| Altitude | 37000 |
| Route | ML H129 DOSEL Y59 RIVET |
| Aircraft | A320/M-SDE3FGHIRWY/LB1 |
Departure
| Time | 2026-04-21 10:35 |
|---|---|
| Airport | Melbourne Airport (YMML) |
Arrival
| Time | 2026-04-21 11:41 |
|---|---|
| Airport | Sydney Kingsford Smith International Airport (YSSY) |
| Time | Latitude | Longitude | Altitude | Speed | Heading |
|---|---|---|---|---|---|
| 2026-04-21 09:55 | -37.67572 | 144.84657 | 353 ft | 0 kts | 83° |
| 2026-04-21 10:23 | -37.67573 | 144.84633 | 360 ft | 4 kts | 94° |
| 2026-04-21 10:24 | -37.67568 | 144.84600 | 363 ft | 4 kts | 110° |
| 2026-04-21 10:24 | -37.67559 | 144.84568 | 362 ft | 4 kts | 102° |
| 2026-04-21 10:24 | -37.67558 | 144.84550 | 363 ft | 4 kts | 102° |
| 2026-04-21 10:24 | -37.67570 | 144.84543 | 363 ft | 4 kts | 195° |
| 2026-04-21 10:25 | -37.67582 | 144.84545 | 356 ft | 4 kts | 130° |
| 2026-04-21 10:25 | -37.67582 | 144.84573 | 357 ft | 2 kts | 82° |
| 2026-04-21 10:25 | -37.67581 | 144.84575 | 357 ft | 3 kts | 81° |
| 2026-04-21 10:27 | -37.67581 | 144.84582 | 357 ft | 0 kts | 81° |
| 2026-04-21 10:30 | -37.67583 | 144.84585 | 356 ft | 1 kts | 110° |
| 2026-04-21 10:30 | -37.67587 | 144.84585 | 357 ft | 0 kts | 156° |
| 2026-04-21 10:31 | -37.67604 | 144.84584 | 353 ft | 6 kts | 179° |
| 2026-04-21 10:31 | -37.67655 | 144.84584 | 355 ft | 9 kts | 180° |
| 2026-04-21 10:31 | -37.67731 | 144.84587 | 355 ft | 13 kts | 172° |
| 2026-04-21 10:31 | -37.67819 | 144.84566 | 357 ft | 15 kts | 245° |
| 2026-04-21 10:32 | -37.67829 | 144.84477 | 359 ft | 16 kts | 262° |
| 2026-04-21 10:32 | -37.67899 | 144.84399 | 354 ft | 17 kts | 173° |
| 2026-04-21 10:32 | -37.68033 | 144.84422 | 345 ft | 22 kts | 172° |
| 2026-04-21 10:32 | -37.68195 | 144.84453 | 337 ft | 23 kts | 171° |
| 2026-04-21 10:33 | -37.68336 | 144.84470 | 334 ft | 21 kts | 193° |
| 2026-04-21 10:33 | -37.68460 | 144.84376 | 333 ft | 20 kts | 217° |
| 2026-04-21 10:33 | -37.68548 | 144.84260 | 328 ft | 15 kts | 253° |
| 2026-04-21 10:33 | -37.68565 | 144.84122 | 332 ft | 16 kts | 264° |
| 2026-04-21 10:34 | -37.68518 | 144.84084 | 333 ft | 7 kts | 354° |
| 2026-04-21 10:34 | -37.68329 | 144.84050 | 340 ft | 68 kts | 352° |
| 2026-04-21 10:34 | -37.67587 | 144.83913 | 367 ft | 142 kts | 352° |
| 2026-04-21 10:34 | -37.66475 | 144.83713 | 782 ft | 175 kts | 352° |
| 2026-04-21 10:35 | -37.65219 | 144.83470 | 1253 ft | 196 kts | 352° |
| 2026-04-21 10:35 | -37.63786 | 144.83196 | 1670 ft | 220 kts | 351° |
| 2026-04-21 10:35 | -37.61617 | 144.82776 | 2396 ft | 246 kts | 351° |
| 2026-04-21 10:35 | -37.60480 | 144.82556 | 2963 ft | 251 kts | 351° |
| 2026-04-21 10:36 | -37.58722 | 144.82588 | 3831 ft | 259 kts | 15° |
| 2026-04-21 10:36 | -37.57047 | 144.83490 | 4631 ft | 266 kts | 25° |
| 2026-04-21 10:36 | -37.55376 | 144.84508 | 5313 ft | 268 kts | 26° |
| 2026-04-21 10:36 | -37.53688 | 144.85546 | 6219 ft | 273 kts | 25° |
| 2026-04-21 10:37 | -37.51964 | 144.86608 | 7067 ft | 278 kts | 25° |
| 2026-04-21 10:37 | -37.50204 | 144.87689 | 7906 ft | 284 kts | 25° |
| 2026-04-21 10:37 | -37.48414 | 144.88786 | 8735 ft | 288 kts | 25° |
| 2026-04-21 10:37 | -37.46587 | 144.89899 | 9548 ft | 294 kts | 26° |
| 2026-04-21 10:38 | -37.44750 | 144.91074 | 10364 ft | 299 kts | 32° |
| 2026-04-21 10:38 | -37.43122 | 144.92735 | 10969 ft | 309 kts | 47° |
| 2026-04-21 10:38 | -37.41782 | 144.94928 | 11200 ft | 332 kts | 56° |
| 2026-04-21 10:38 | -37.40419 | 144.97364 | 11596 ft | 346 kts | 56° |
| 2026-04-21 10:39 | -37.39018 | 144.99866 | 12242 ft | 352 kts | 56° |
| 2026-04-21 10:39 | -37.37602 | 145.02391 | 12951 ft | 355 kts | 56° |
| 2026-04-21 10:39 | -37.36167 | 145.04947 | 13636 ft | 359 kts | 56° |
| 2026-04-21 10:39 | -37.34714 | 145.07522 | 14284 ft | 363 kts | 56° |
| 2026-04-21 10:40 | -37.33244 | 145.10122 | 14876 ft | 367 kts | 56° |
| 2026-04-21 10:40 | -37.31759 | 145.12750 | 15457 ft | 371 kts | 55° |
| 2026-04-21 10:40 | -37.30253 | 145.15398 | 16044 ft | 374 kts | 55° |
| 2026-04-21 10:40 | -37.28732 | 145.18074 | 16631 ft | 378 kts | 55° |
| 2026-04-21 10:41 | -37.27196 | 145.20776 | 17216 ft | 381 kts | 55° |
| 2026-04-21 10:41 | -37.25648 | 145.23496 | 17796 ft | 385 kts | 55° |
| 2026-04-21 10:41 | -37.24079 | 145.26245 | 18379 ft | 388 kts | 55° |
| 2026-04-21 10:41 | -37.22506 | 145.29012 | 18903 ft | 392 kts | 56° |
| 2026-04-21 10:42 | -37.20916 | 145.31813 | 19414 ft | 396 kts | 56° |
| 2026-04-21 10:42 | -37.19303 | 145.34638 | 19940 ft | 399 kts | 55° |
| 2026-04-21 10:42 | -37.17693 | 145.37449 | 20463 ft | 402 kts | 55° |
| 2026-04-21 10:42 | -37.16055 | 145.40311 | 20971 ft | 406 kts | 56° |
| 2026-04-21 10:43 | -37.14409 | 145.43192 | 21457 ft | 409 kts | 56° |
| 2026-04-21 10:43 | -37.12743 | 145.46104 | 21945 ft | 412 kts | 56° |
| 2026-04-21 10:43 | -37.11065 | 145.49029 | 22429 ft | 415 kts | 56° |
| 2026-04-21 10:43 | -37.09368 | 145.51987 | 22902 ft | 418 kts | 56° |
| 2026-04-21 10:44 | -37.07664 | 145.54958 | 23383 ft | 421 kts | 56° |
| 2026-04-21 10:44 | -37.05950 | 145.57945 | 23855 ft | 424 kts | 56° |
| 2026-04-21 10:44 | -37.04221 | 145.60953 | 24241 ft | 427 kts | 55° |
| 2026-04-21 10:44 | -37.02473 | 145.63986 | 24632 ft | 430 kts | 55° |
| 2026-04-21 10:45 | -37.00737 | 145.66993 | 25011 ft | 433 kts | 55° |
| 2026-04-21 10:45 | -36.98943 | 145.70092 | 25405 ft | 435 kts | 55° |
| 2026-04-21 10:45 | -36.97185 | 145.73128 | 25781 ft | 438 kts | 55° |
| 2026-04-21 10:45 | -36.95372 | 145.76265 | 26171 ft | 440 kts | 55° |
| 2026-04-21 10:46 | -36.93599 | 145.79332 | 26552 ft | 443 kts | 55° |
| 2026-04-21 10:46 | -36.91786 | 145.82460 | 26912 ft | 446 kts | 55° |
| 2026-04-21 10:46 | -36.89958 | 145.85610 | 27269 ft | 449 kts | 55° |
| 2026-04-21 10:46 | -36.88118 | 145.88778 | 27627 ft | 451 kts | 55° |
| 2026-04-21 10:47 | -36.86275 | 145.91953 | 27991 ft | 454 kts | 55° |
| 2026-04-21 10:47 | -36.84422 | 145.95146 | 28357 ft | 456 kts | 54° |
| 2026-04-21 10:47 | -36.82547 | 145.98374 | 28726 ft | 459 kts | 54° |
| 2026-04-21 10:47 | -36.80663 | 146.01608 | 29086 ft | 461 kts | 54° |
| 2026-04-21 10:48 | -36.78768 | 146.04858 | 29455 ft | 464 kts | 55° |
| 2026-04-21 10:48 | -36.76866 | 146.08115 | 29779 ft | 468 kts | 54° |
| 2026-04-21 10:48 | -36.74941 | 146.11408 | 30111 ft | 470 kts | 54° |
| 2026-04-21 10:48 | -36.73008 | 146.14714 | 30445 ft | 473 kts | 54° |
| 2026-04-21 10:49 | -36.71064 | 146.18035 | 30738 ft | 475 kts | 54° |
| 2026-04-21 10:49 | -36.69114 | 146.21361 | 31123 ft | 475 kts | 54° |
| 2026-04-21 10:49 | -36.67167 | 146.24678 | 31530 ft | 474 kts | 54° |
| 2026-04-21 10:49 | -36.65221 | 146.27993 | 31961 ft | 474 kts | 54° |
| 2026-04-21 10:50 | -36.63271 | 146.31314 | 32391 ft | 473 kts | 54° |
| 2026-04-21 10:50 | -36.61329 | 146.34620 | 32812 ft | 473 kts | 54° |
| 2026-04-21 10:50 | -36.59409 | 146.37884 | 33205 ft | 473 kts | 54° |
| 2026-04-21 10:50 | -36.57466 | 146.41183 | 33632 ft | 472 kts | 54° |
| 2026-04-21 10:51 | -36.55520 | 146.44479 | 34053 ft | 472 kts | 54° |
| 2026-04-21 10:51 | -36.53580 | 146.47761 | 34466 ft | 471 kts | 54° |
| 2026-04-21 10:51 | -36.51638 | 146.51048 | 34810 ft | 471 kts | 54° |
| 2026-04-21 10:51 | -36.49701 | 146.54324 | 35144 ft | 471 kts | 54° |
| 2026-04-21 10:52 | -36.47755 | 146.57609 | 35439 ft | 472 kts | 54° |
| 2026-04-21 10:52 | -36.45810 | 146.60891 | 35728 ft | 472 kts | 54° |
| 2026-04-21 10:52 | -36.43859 | 146.64176 | 36027 ft | 473 kts | 54° |
| 2026-04-21 10:52 | -36.41908 | 146.67457 | 36336 ft | 473 kts | 54° |
| 2026-04-21 10:53 | -36.39956 | 146.70738 | 36628 ft | 473 kts | 54° |
| 2026-04-21 10:53 | -36.37998 | 146.74032 | 36920 ft | 473 kts | 54° |
| 2026-04-21 10:53 | -36.36046 | 146.77311 | 37194 ft | 473 kts | 54° |
| 2026-04-21 10:53 | -36.34081 | 146.80604 | 37316 ft | 476 kts | 54° |
| 2026-04-21 10:54 | -36.32097 | 146.83919 | 37342 ft | 479 kts | 54° |
| 2026-04-21 10:54 | -36.28153 | 146.90513 | 37346 ft | 480 kts | 54° |
| 2026-04-21 10:55 | -36.24173 | 146.97172 | 37343 ft | 480 kts | 54° |
| 2026-04-21 10:55 | -36.20190 | 147.03825 | 37342 ft | 481 kts | 54° |
| 2026-04-21 10:56 | -36.16192 | 147.10473 | 37345 ft | 482 kts | 54° |
| 2026-04-21 10:56 | -36.12190 | 147.17120 | 37365 ft | 482 kts | 54° |
| 2026-04-21 10:57 | -36.08175 | 147.23773 | 37355 ft | 482 kts | 54° |
| 2026-04-21 10:57 | -36.04188 | 147.30360 | 37343 ft | 482 kts | 54° |
| 2026-04-21 10:58 | -36.00170 | 147.36989 | 37344 ft | 482 kts | 54° |
| 2026-04-21 10:58 | -35.96142 | 147.43614 | 37360 ft | 482 kts | 54° |
| 2026-04-21 10:59 | -35.92115 | 147.50230 | 37366 ft | 483 kts | 54° |
| 2026-04-21 10:59 | -35.88078 | 147.56863 | 37364 ft | 487 kts | 54° |
| 2026-04-21 11:00 | -35.83969 | 147.63601 | 37364 ft | 493 kts | 54° |
| 2026-04-21 11:00 | -35.79835 | 147.70360 | 37362 ft | 494 kts | 54° |
| 2026-04-21 11:01 | -35.75687 | 147.77120 | 37357 ft | 495 kts | 54° |
| 2026-04-21 11:01 | -35.71539 | 147.83881 | 37370 ft | 495 kts | 54° |
| 2026-04-21 11:02 | -35.65328 | 147.93959 | 37381 ft | 495 kts | 54° |
| 2026-04-21 11:02 | -35.61162 | 148.00704 | 37386 ft | 495 kts | 54° |
| 2026-04-21 11:03 | -35.56990 | 148.07432 | 37381 ft | 495 kts | 53° |
| 2026-04-21 11:03 | -35.52810 | 148.14174 | 37389 ft | 495 kts | 54° |
| 2026-04-21 11:04 | -35.48642 | 148.20904 | 37395 ft | 496 kts | 54° |
| 2026-04-21 11:04 | -35.44465 | 148.27636 | 37396 ft | 496 kts | 54° |
| 2026-04-21 11:05 | -35.40263 | 148.34378 | 37397 ft | 497 kts | 54° |
| 2026-04-21 11:05 | -35.36062 | 148.41095 | 37391 ft | 497 kts | 53° |
| 2026-04-21 11:06 | -35.31856 | 148.47818 | 37422 ft | 497 kts | 53° |
| 2026-04-21 11:06 | -35.27642 | 148.54539 | 37417 ft | 497 kts | 54° |
| 2026-04-21 11:07 | -35.23429 | 148.61250 | 37421 ft | 497 kts | 53° |
| 2026-04-21 11:07 | -35.19236 | 148.67909 | 37415 ft | 497 kts | 53° |
| 2026-04-21 11:08 | -35.15024 | 148.74585 | 37418 ft | 498 kts | 53° |
| 2026-04-21 11:08 | -35.10799 | 148.81281 | 37434 ft | 498 kts | 54° |
| 2026-04-21 11:09 | -35.06567 | 148.87977 | 37431 ft | 498 kts | 54° |
| 2026-04-21 11:09 | -35.02330 | 148.94659 | 37424 ft | 498 kts | 53° |
| 2026-04-21 11:10 | -34.98078 | 149.01343 | 37425 ft | 499 kts | 53° |
| 2026-04-21 11:10 | -34.93813 | 149.08040 | 37446 ft | 499 kts | 53° |
| 2026-04-21 11:11 | -34.89598 | 149.14650 | 37403 ft | 491 kts | 53° |
| 2026-04-21 11:11 | -34.87476 | 149.17978 | 36604 ft | 496 kts | 53° |
| 2026-04-21 11:11 | -34.85373 | 149.21274 | 35779 ft | 501 kts | 53° |
| 2026-04-21 11:12 | -34.83205 | 149.24666 | 35135 ft | 500 kts | 53° |
| 2026-04-21 11:12 | -34.81096 | 149.27958 | 34509 ft | 499 kts | 53° |
| 2026-04-21 11:12 | -34.78955 | 149.31291 | 33798 ft | 498 kts | 53° |
| 2026-04-21 11:12 | -34.76829 | 149.34596 | 32852 ft | 492 kts | 53° |
| 2026-04-21 11:13 | -34.74728 | 149.37894 | 32104 ft | 491 kts | 56° |
| 2026-04-21 11:13 | -34.72948 | 149.41389 | 31617 ft | 483 kts | 64° |
| 2026-04-21 11:13 | -34.71382 | 149.44991 | 31053 ft | 480 kts | 64° |
| 2026-04-21 11:13 | -34.69831 | 149.48563 | 30509 ft | 476 kts | 64° |
| 2026-04-21 11:14 | -34.68292 | 149.52096 | 29908 ft | 471 kts | 64° |
| 2026-04-21 11:14 | -34.66766 | 149.55592 | 29386 ft | 465 kts | 64° |
| 2026-04-21 11:14 | -34.65256 | 149.59044 | 28857 ft | 460 kts | 64° |
| 2026-04-21 11:14 | -34.63764 | 149.62455 | 28343 ft | 455 kts | 65° |
| 2026-04-21 11:15 | -34.62290 | 149.65829 | 27829 ft | 450 kts | 65° |
| 2026-04-21 11:15 | -34.60829 | 149.69163 | 27325 ft | 445 kts | 65° |
| 2026-04-21 11:15 | -34.59380 | 149.72460 | 26854 ft | 440 kts | 65° |
| 2026-04-21 11:15 | -34.57947 | 149.75721 | 26387 ft | 435 kts | 65° |
| 2026-04-21 11:16 | -34.56531 | 149.78940 | 25935 ft | 431 kts | 65° |
| 2026-04-21 11:16 | -34.55139 | 149.82092 | 25497 ft | 427 kts | 65° |
| 2026-04-21 11:16 | -34.53744 | 149.85253 | 25050 ft | 423 kts | 65° |
| 2026-04-21 11:16 | -34.52365 | 149.88380 | 24611 ft | 419 kts | 65° |
| 2026-04-21 11:17 | -34.50993 | 149.91492 | 24165 ft | 417 kts | 65° |
| 2026-04-21 11:17 | -34.49629 | 149.94585 | 23680 ft | 415 kts | 65° |
| 2026-04-21 11:17 | -34.48276 | 149.97646 | 23215 ft | 411 kts | 65° |
| 2026-04-21 11:17 | -34.46933 | 150.00684 | 22767 ft | 406 kts | 65° |
| 2026-04-21 11:18 | -34.45604 | 150.03687 | 22294 ft | 403 kts | 65° |
| 2026-04-21 11:18 | -34.44285 | 150.06664 | 21833 ft | 399 kts | 65° |
| 2026-04-21 11:18 | -34.42976 | 150.09617 | 21356 ft | 396 kts | 65° |
| 2026-04-21 11:18 | -34.41676 | 150.12544 | 20887 ft | 393 kts | 65° |
| 2026-04-21 11:19 | -34.40381 | 150.15454 | 20400 ft | 391 kts | 65° |
| 2026-04-21 11:19 | -34.39096 | 150.18336 | 19934 ft | 388 kts | 65° |
| 2026-04-21 11:19 | -34.37816 | 150.21203 | 19446 ft | 386 kts | 65° |
| 2026-04-21 11:19 | -34.36544 | 150.24062 | 18965 ft | 384 kts | 65° |
| 2026-04-21 11:20 | -34.35280 | 150.26902 | 18456 ft | 381 kts | 65° |
| 2026-04-21 11:20 | -34.34030 | 150.29711 | 17949 ft | 378 kts | 64° |
| 2026-04-21 11:20 | -34.32789 | 150.32494 | 17486 ft | 373 kts | 64° |
| 2026-04-21 11:20 | -34.31561 | 150.35236 | 17014 ft | 369 kts | 64° |
| 2026-04-21 11:21 | -34.30344 | 150.37949 | 16554 ft | 365 kts | 64° |
| 2026-04-21 11:21 | -34.29139 | 150.40639 | 16084 ft | 362 kts | 64° |
| 2026-04-21 11:21 | -34.27961 | 150.43270 | 15632 ft | 359 kts | 64° |
| 2026-04-21 11:21 | -34.26781 | 150.45906 | 15168 ft | 356 kts | 64° |
| 2026-04-21 11:22 | -34.25610 | 150.48527 | 14723 ft | 353 kts | 64° |
| 2026-04-21 11:22 | -34.24449 | 150.51129 | 14269 ft | 351 kts | 64° |
| 2026-04-21 11:22 | -34.23291 | 150.53716 | 13774 ft | 348 kts | 64° |
| 2026-04-21 11:22 | -34.22145 | 150.56277 | 13327 ft | 344 kts | 64° |
| 2026-04-21 11:23 | -34.21011 | 150.58809 | 12888 ft | 341 kts | 64° |
| 2026-04-21 11:23 | -34.20266 | 150.60472 | 12600 ft | 339 kts | 64° |
| 2026-04-21 11:23 | -34.18770 | 150.63799 | 12008 ft | 335 kts | 64° |
| 2026-04-21 11:23 | -34.17663 | 150.66259 | 11592 ft | 332 kts | 64° |
| 2026-04-21 11:24 | -34.16936 | 150.67883 | 11306 ft | 331 kts | 64° |
| 2026-04-21 11:24 | -34.15844 | 150.70319 | 10884 ft | 329 kts | 64° |
| 2026-04-21 11:24 | -34.14730 | 150.72723 | 10459 ft | 327 kts | 63° |
| 2026-04-21 11:24 | -34.13630 | 150.75096 | 10238 ft | 318 kts | 63° |
| 2026-04-21 11:25 | -34.12594 | 150.77399 | 10108 ft | 307 kts | 64° |
| 2026-04-21 11:25 | -34.11602 | 150.79636 | 9963 ft | 296 kts | 65° |
| 2026-04-21 11:25 | -34.10641 | 150.81800 | 9732 ft | 290 kts | 65° |
| 2026-04-21 11:25 | -34.09686 | 150.83939 | 9373 ft | 289 kts | 65° |
| 2026-04-21 11:26 | -34.08732 | 150.86077 | 9039 ft | 288 kts | 65° |
| 2026-04-21 11:26 | -34.07783 | 150.88190 | 8737 ft | 285 kts | 65° |
| 2026-04-21 11:26 | -34.06841 | 150.90275 | 8482 ft | 281 kts | 65° |
| 2026-04-21 11:26 | -34.05915 | 150.92323 | 8229 ft | 277 kts | 65° |
| 2026-04-21 11:27 | -34.04989 | 150.94344 | 7983 ft | 273 kts | 61° |
| 2026-04-21 11:27 | -34.03668 | 150.95979 | 7741 ft | 277 kts | 34° |
| 2026-04-21 11:27 | -34.01850 | 150.96707 | 7487 ft | 278 kts | 6° |
| 2026-04-21 11:27 | -33.99922 | 150.96746 | 7241 ft | 276 kts | 357° |
| 2026-04-21 11:28 | -33.98038 | 150.96355 | 6999 ft | 274 kts | 348° |
| 2026-04-21 11:28 | -33.96187 | 150.95828 | 6756 ft | 272 kts | 347° |
| 2026-04-21 11:28 | -33.94383 | 150.95299 | 6503 ft | 269 kts | 347° |
| 2026-04-21 11:28 | -33.92572 | 150.94766 | 6249 ft | 266 kts | 347° |
| 2026-04-21 11:29 | -33.90783 | 150.94239 | 5994 ft | 263 kts | 347° |
| 2026-04-21 11:29 | -33.89016 | 150.93716 | 5746 ft | 260 kts | 347° |
| 2026-04-21 11:29 | -33.87267 | 150.93197 | 5503 ft | 257 kts | 347° |
| 2026-04-21 11:29 | -33.85425 | 150.92652 | 5260 ft | 297 kts | 347° |
| 2026-04-21 11:30 | -33.83405 | 150.92060 | 4996 ft | 297 kts | 347° |
| 2026-04-21 11:30 | -33.81415 | 150.91477 | 4736 ft | 292 kts | 347° |
| 2026-04-21 11:30 | -33.79454 | 150.90905 | 4484 ft | 288 kts | 347° |
| 2026-04-21 11:30 | -33.77519 | 150.90344 | 4226 ft | 284 kts | 347° |
| 2026-04-21 11:31 | -33.75617 | 150.89796 | 3974 ft | 280 kts | 347° |
| 2026-04-21 11:31 | -33.73704 | 150.89701 | 3728 ft | 274 kts | 14° |
| 2026-04-21 11:31 | -33.72014 | 150.90558 | 3492 ft | 264 kts | 39° |
| 2026-04-21 11:31 | -33.70780 | 150.92093 | 3372 ft | 248 kts | 63° |
| 2026-04-21 11:32 | -33.70158 | 150.93911 | 3373 ft | 226 kts | 83° |
| 2026-04-21 11:32 | -33.70096 | 150.95690 | 3373 ft | 204 kts | 103° |
| 2026-04-21 11:32 | -33.70447 | 150.97249 | 3396 ft | 183 kts | 114° |
| 2026-04-21 11:32 | -33.70832 | 150.98622 | 3367 ft | 165 kts | 114° |
| 2026-04-21 11:33 | -33.71180 | 150.99880 | 3256 ft | 152 kts | 114° |
| 2026-04-21 11:33 | -33.71500 | 151.01037 | 3132 ft | 141 kts | 115° |
| 2026-04-21 11:33 | -33.71806 | 151.02134 | 3080 ft | 150 kts | 115° |
| 2026-04-21 11:33 | -33.72158 | 151.03374 | 3012 ft | 151 kts | 114° |
| 2026-04-21 11:34 | -33.72473 | 151.04526 | 3021 ft | 144 kts | 114° |
| 2026-04-21 11:34 | -33.72786 | 151.05666 | 3023 ft | 142 kts | 115° |
| 2026-04-21 11:34 | -33.73098 | 151.06792 | 3023 ft | 142 kts | 115° |
| 2026-04-21 11:34 | -33.73408 | 151.07915 | 3025 ft | 142 kts | 114° |
| 2026-04-21 11:35 | -33.73719 | 151.09038 | 3023 ft | 141 kts | 114° |
| 2026-04-21 11:35 | -33.74031 | 151.10157 | 3021 ft | 141 kts | 115° |
| 2026-04-21 11:35 | -33.74386 | 151.11249 | 3018 ft | 138 kts | 126° |
| 2026-04-21 11:35 | -33.74989 | 151.12122 | 3022 ft | 135 kts | 144° |
| 2026-04-21 11:36 | -33.75821 | 151.12573 | 3019 ft | 132 kts | 168° |
| 2026-04-21 11:36 | -33.76702 | 151.12863 | 3019 ft | 133 kts | 165° |
| 2026-04-21 11:36 | -33.77602 | 151.13144 | 2986 ft | 134 kts | 167° |
| 2026-04-21 11:36 | -33.78506 | 151.13402 | 2879 ft | 133 kts | 167° |
| 2026-04-21 11:37 | -33.79401 | 151.13645 | 2741 ft | 132 kts | 167° |
| 2026-04-21 11:37 | -33.80299 | 151.13883 | 2553 ft | 132 kts | 168° |
| 2026-04-21 11:37 | -33.81194 | 151.14117 | 2393 ft | 132 kts | 168° |
| 2026-04-21 11:37 | -33.82088 | 151.14350 | 2216 ft | 132 kts | 168° |
| 2026-04-21 11:38 | -33.82980 | 151.14581 | 2045 ft | 131 kts | 169° |
| 2026-04-21 11:38 | -33.83874 | 151.14813 | 1862 ft | 132 kts | 168° |
| 2026-04-21 11:38 | -33.84766 | 151.15044 | 1690 ft | 131 kts | 169° |
| 2026-04-21 11:38 | -33.85670 | 151.15277 | 1508 ft | 135 kts | 169° |
| 2026-04-21 11:39 | -33.86585 | 151.15514 | 1321 ft | 134 kts | 168° |
| 2026-04-21 11:39 | -33.87483 | 151.15747 | 1143 ft | 132 kts | 168° |
| 2026-04-21 11:39 | -33.88368 | 151.15976 | 958 ft | 126 kts | 169° |
| 2026-04-21 11:39 | -33.89234 | 151.16200 | 800 ft | 129 kts | 168° |
| 2026-04-21 11:40 | -33.90097 | 151.16424 | 636 ft | 123 kts | 168° |
| 2026-04-21 11:40 | -33.90919 | 151.16630 | 395 ft | 123 kts | 168° |
| 2026-04-21 11:40 | -33.91811 | 151.16856 | 284 ft | 127 kts | 168° |
| 2026-04-21 11:40 | -33.92629 | 151.17079 | 110 ft | 119 kts | 167° |
| 2026-04-21 11:41 | -33.93425 | 151.17290 | 16 ft | 97 kts | 169° |
| 2026-04-21 11:41 | -33.93895 | 151.17410 | 18 ft | 54 kts | 167° |
| 2026-04-21 11:41 | -33.94197 | 151.17491 | 25 ft | 36 kts | 167° |
| 2026-04-21 11:41 | -33.94402 | 151.17603 | 24 ft | 28 kts | 143° |
| 2026-04-21 11:42 | -33.94458 | 151.17655 | 29 ft | 0 kts | 141° |
| 2026-04-21 11:42 | -33.94469 | 151.17665 | 25 ft | 6 kts | 141° |
| 2026-04-21 11:43 | -33.94513 | 151.17709 | 25 ft | 10 kts | 141° |
| 2026-04-21 11:43 | -33.94507 | 151.17778 | 24 ft | 11 kts | 23° |
| 2026-04-21 11:43 | -33.94424 | 151.17764 | 23 ft | 14 kts | 345° |
| 2026-04-21 11:43 | -33.94300 | 151.17726 | 22 ft | 21 kts | 346° |
| 2026-04-21 11:44 | -33.94149 | 151.17682 | 22 ft | 23 kts | 346° |
| 2026-04-21 11:44 | -33.93984 | 151.17632 | 20 ft | 25 kts | 347° |
| 2026-04-21 11:44 | -33.93874 | 151.17647 | 19 ft | 16 kts | 63° |
| 2026-04-21 11:44 | -33.93837 | 151.17767 | 22 ft | 13 kts | 43° |
| 2026-04-21 11:45 | -33.93744 | 151.17792 | 27 ft | 13 kts | 10° |
| 2026-04-21 11:45 | -33.93667 | 151.17809 | 31 ft | 13 kts | 11° |
| 2026-04-21 11:45 | -33.93570 | 151.17831 | 31 ft | 15 kts | 11° |
| 2026-04-21 11:45 | -33.93528 | 151.17793 | 30 ft | 9 kts | 287° |
| 2026-04-21 11:46 | -33.93523 | 151.17760 | 30 ft | 0 kts | 279° |